createdAt,value
2018-11-11T00:00:01.129Z,977.67
2018-11-11T00:01:01.081Z,977.68
2018-11-11T00:02:01.047Z,977.70
2018-11-11T00:03:00.996Z,977.69
2018-11-11T00:04:00.961Z,977.74
2018-11-11T00:05:00.916Z,977.71
2018-11-11T00:06:00.871Z,977.68
2018-11-11T00:07:00.840Z,977.67
2018-11-11T00:08:00.801Z,977.71
2018-11-11T00:09:00.755Z,977.70
2018-11-11T00:10:00.704Z,977.66
2018-11-11T00:11:00.710Z,977.65
2018-11-11T00:12:00.674Z,977.60
2018-11-11T00:13:00.613Z,977.63
2018-11-11T00:14:00.567Z,977.57
2018-11-11T00:15:00.523Z,977.57
2018-11-11T00:16:00.501Z,977.55
2018-11-11T00:17:00.451Z,977.60
2018-11-11T00:18:00.395Z,977.64
2018-11-11T00:19:00.376Z,977.66
2018-11-11T00:20:00.327Z,977.73
2018-11-11T00:21:00.269Z,977.71
2018-11-11T00:22:00.243Z,977.73
2018-11-11T00:23:00.219Z,977.73
2018-11-11T00:24:00.159Z,977.74
2018-11-11T00:25:00.112Z,977.70
2018-11-11T00:26:00.080Z,977.67
2018-11-11T00:27:00.036Z,977.65
2018-11-11T00:27:59.986Z,977.68
2018-11-11T00:28:59.952Z,977.69
2018-11-11T00:29:59.960Z,977.74
2018-11-11T00:30:59.885Z,977.79
2018-11-11T00:31:59.863Z,977.81
2018-11-11T00:32:59.794Z,977.83
2018-11-11T00:33:59.749Z,977.80
2018-11-11T00:34:59.717Z,977.81
2018-11-11T00:35:59.665Z,977.81
2018-11-11T00:36:59.615Z,977.76
2018-11-11T00:37:59.600Z,977.77
2018-11-11T00:38:59.534Z,977.73
2018-11-11T00:39:59.510Z,977.72
2018-11-11T00:40:59.473Z,977.68
2018-11-11T00:41:59.433Z,977.71
2018-11-11T00:42:59.391Z,977.76
2018-11-11T00:43:59.347Z,977.77
2018-11-11T00:44:59.300Z,977.72
2018-11-11T00:45:59.286Z,977.73
2018-11-11T00:46:59.218Z,977.75
2018-11-11T00:47:59.183Z,977.76
2018-11-11T00:48:59.146Z,977.75
2018-11-11T00:49:59.103Z,977.74
2018-11-11T00:50:59.069Z,977.76
2018-11-11T00:51:59.048Z,977.79
2018-11-11T00:52:59.000Z,977.75
2018-11-11T00:53:58.955Z,977.79
2018-11-11T00:54:58.907Z,977.85
2018-11-11T00:55:58.878Z,977.83
2018-11-11T00:56:58.825Z,977.88
2018-11-11T00:57:58.785Z,977.82
2018-11-11T00:58:58.754Z,977.81
2018-11-11T00:59:58.709Z,977.79
2018-11-11T01:00:58.656Z,977.78
2018-11-11T01:01:58.628Z,977.83
2018-11-11T01:02:58.576Z,977.86
2018-11-11T01:03:58.538Z,977.78
2018-11-11T01:04:58.499Z,977.75
2018-11-11T01:05:58.458Z,977.73
2018-11-11T01:06:58.413Z,977.76
2018-11-11T01:07:58.366Z,977.81
2018-11-11T01:08:58.340Z,977.81
2018-11-11T01:09:58.315Z,977.85
2018-11-11T01:10:58.262Z,977.85
2018-11-11T01:11:58.237Z,977.85
2018-11-11T01:12:58.176Z,977.84
2018-11-11T01:13:58.136Z,977.85
2018-11-11T01:14:58.091Z,977.87
2018-11-11T01:15:58.046Z,977.89
2018-11-11T01:16:58.035Z,977.86
2018-11-11T01:17:57.987Z,977.85
2018-11-11T01:18:57.950Z,977.87
2018-11-11T01:19:57.915Z,977.85
2018-11-11T01:20:57.880Z,977.83
2018-11-11T01:21:57.855Z,977.82
2018-11-11T01:24:31.108Z,977.85
2018-11-11T01:25:31.024Z,977.81
2018-11-11T01:26:30.980Z,977.92
2018-11-11T01:27:30.939Z,977.94
2018-11-11T01:28:30.931Z,977.96
2018-11-11T01:29:30.905Z,977.94
2018-11-11T01:30:30.841Z,977.93
2018-11-11T01:31:30.793Z,977.92
2018-11-11T01:32:30.728Z,977.93
2018-11-11T01:33:30.718Z,977.93
2018-11-11T01:34:30.679Z,977.93
2018-11-11T01:35:30.683Z,977.91
2018-11-11T01:36:30.589Z,977.98
2018-11-11T01:37:30.545Z,977.99
2018-11-11T01:38:30.540Z,978.02
2018-11-11T01:39:30.464Z,977.97
2018-11-11T01:40:30.422Z,978.01
2018-11-11T01:41:30.383Z,977.96
2018-11-11T01:42:30.357Z,977.97
2018-11-11T01:43:30.303Z,977.91
2018-11-11T01:44:30.250Z,977.92
2018-11-11T01:45:30.220Z,977.90
2018-11-11T01:46:30.206Z,977.91
2018-11-11T01:47:30.158Z,977.86
2018-11-11T01:48:30.118Z,977.87
2018-11-11T01:49:30.080Z,977.89
2018-11-11T01:50:30.042Z,977.91
2018-11-11T01:51:30.023Z,977.92
2018-11-11T01:52:29.944Z,977.95
2018-11-11T01:53:29.961Z,977.98
2018-11-11T01:54:29.879Z,977.93
2018-11-11T01:55:29.893Z,977.96
2018-11-11T01:56:29.780Z,978.00
2018-11-11T01:57:29.757Z,978.04
2018-11-11T01:58:29.757Z,978.02
2018-11-11T01:59:29.687Z,978.07
2018-11-11T02:00:29.616Z,978.06
2018-11-11T02:01:29.584Z,978.07
2018-11-11T02:02:29.557Z,978.05
2018-11-11T02:03:29.542Z,978.08
2018-11-11T02:04:29.464Z,978.07
2018-11-11T02:05:29.415Z,978.11
2018-11-11T02:06:29.377Z,978.07
2018-11-11T02:07:29.350Z,978.06
2018-11-11T02:08:29.303Z,978.09
2018-11-11T02:09:29.267Z,978.17
2018-11-11T02:10:29.227Z,978.11
2018-11-11T02:11:29.177Z,978.16
2018-11-11T02:12:29.146Z,978.12
2018-11-11T02:13:29.110Z,978.20
2018-11-11T02:14:29.071Z,978.17
2018-11-11T02:15:29.032Z,978.19
2018-11-11T02:16:28.997Z,978.22
2018-11-11T02:17:28.960Z,978.23
2018-11-11T02:18:28.918Z,978.30
2018-11-11T02:19:28.883Z,978.29
2018-11-11T02:20:28.835Z,978.31
2018-11-11T02:21:28.811Z,978.25
2018-11-11T02:22:28.755Z,978.22
2018-11-11T02:23:28.730Z,978.28
2018-11-11T02:24:28.681Z,978.23
2018-11-11T02:25:28.625Z,978.29
2018-11-11T02:26:28.599Z,978.31
2018-11-11T02:27:28.570Z,978.36
2018-11-11T02:28:28.537Z,978.38
2018-11-11T02:29:28.477Z,978.32
2018-11-11T02:30:28.511Z,978.36
2018-11-11T02:31:28.414Z,978.37
2018-11-11T02:32:28.477Z,978.37
2018-11-11T02:33:28.339Z,978.38
2018-11-11T02:34:28.272Z,978.39
2018-11-11T02:35:28.230Z,978.37
2018-11-11T02:36:28.203Z,978.42
2018-11-11T02:37:28.165Z,978.43
2018-11-11T02:38:28.103Z,978.49
2018-11-11T02:39:28.072Z,978.48
2018-11-11T02:40:28.030Z,978.44
2018-11-11T02:41:27.983Z,978.40
2018-11-11T02:42:27.957Z,978.45
2018-11-11T02:43:27.906Z,978.45
2018-11-11T02:44:27.868Z,978.42
2018-11-11T02:45:27.847Z,978.39
2018-11-11T02:46:27.785Z,978.45
2018-11-11T02:47:27.752Z,978.49
2018-11-11T02:48:27.719Z,978.53
2018-11-11T02:49:27.681Z,978.56
2018-11-11T02:50:27.641Z,978.61
2018-11-11T02:51:27.618Z,978.60
2018-11-11T02:52:27.558Z,978.58
2018-11-11T02:53:27.515Z,978.56
2018-11-11T02:54:27.472Z,978.54
2018-11-11T02:55:27.437Z,978.61
2018-11-11T02:56:27.388Z,978.62
2018-11-11T02:57:27.380Z,978.63
2018-11-11T02:58:27.306Z,978.63
2018-11-11T02:59:27.296Z,978.61
2018-11-11T03:00:27.248Z,978.63
2018-11-11T03:01:27.198Z,978.64
2018-11-11T03:02:27.156Z,978.65
2018-11-11T03:03:27.117Z,978.66
2018-11-11T03:04:27.133Z,978.65
2018-11-11T03:05:27.018Z,978.68
2018-11-11T03:06:26.991Z,978.70
2018-11-11T03:07:26.972Z,978.70
2018-11-11T03:08:26.909Z,978.70
2018-11-11T03:09:26.869Z,978.69
2018-11-11T03:10:26.813Z,978.71
2018-11-11T03:11:26.778Z,978.72
2018-11-11T03:12:26.751Z,978.67
2018-11-11T03:13:26.703Z,978.64
2018-11-11T03:14:26.660Z,978.58
2018-11-11T03:15:26.615Z,978.58
2018-11-11T03:16:26.583Z,978.51
2018-11-11T03:17:26.554Z,978.54
2018-11-11T03:18:26.515Z,978.55
2018-11-11T03:19:26.500Z,978.48
2018-11-11T03:20:26.424Z,978.50
2018-11-11T03:21:26.408Z,978.52
2018-11-11T03:22:26.347Z,978.58
2018-11-11T03:23:26.324Z,978.58
2018-11-11T03:24:26.287Z,978.56
2018-11-11T03:25:26.260Z,978.61
2018-11-11T03:26:26.187Z,978.67
2018-11-11T03:27:26.137Z,978.71
2018-11-11T03:28:26.124Z,978.64
2018-11-11T03:29:26.064Z,978.69
2018-11-11T03:30:26.052Z,978.63
2018-11-11T03:31:25.989Z,978.64
2018-11-11T03:32:25.964Z,978.68
2018-11-11T03:33:25.915Z,978.66
2018-11-11T03:34:25.890Z,978.63
2018-11-11T03:35:25.825Z,978.60
2018-11-11T03:36:25.808Z,978.60
2018-11-11T03:37:25.757Z,978.68
2018-11-11T03:38:25.704Z,978.67
2018-11-11T03:39:25.666Z,978.65
2018-11-11T03:40:25.620Z,978.68
2018-11-11T03:41:25.588Z,978.68
2018-11-11T03:42:25.535Z,978.71
2018-11-11T03:43:25.522Z,978.71
2018-11-11T03:44:25.455Z,978.69
2018-11-11T03:45:25.419Z,978.70
2018-11-11T03:46:25.388Z,978.72
2018-11-11T03:47:25.336Z,978.69
2018-11-11T03:48:25.311Z,978.69
2018-11-11T03:49:25.271Z,978.70
2018-11-11T03:50:25.229Z,978.70
2018-11-11T03:51:25.179Z,978.68
2018-11-11T03:52:25.143Z,978.65
2018-11-11T03:53:25.094Z,978.66
2018-11-11T03:54:25.090Z,978.68
2018-11-11T03:55:25.021Z,978.70
2018-11-11T03:56:24.983Z,978.70
2018-11-11T03:57:24.959Z,978.69
2018-11-11T03:58:24.961Z,978.61
2018-11-11T03:59:24.877Z,978.61
2018-11-11T04:00:24.857Z,978.63
2018-11-11T04:01:24.792Z,978.64
2018-11-11T04:02:24.779Z,978.60
2018-11-11T04:03:24.698Z,978.58
2018-11-11T04:04:24.656Z,978.59
2018-11-11T04:05:24.641Z,978.60
2018-11-11T04:06:24.572Z,978.62
2018-11-11T04:07:24.562Z,978.65
2018-11-11T04:08:24.493Z,978.67
2018-11-11T04:09:24.468Z,978.67
2018-11-11T04:10:24.466Z,978.68
2018-11-11T04:11:24.387Z,978.68
2018-11-11T04:12:24.336Z,978.65
2018-11-11T04:13:24.301Z,978.64
2018-11-11T04:14:24.257Z,978.65
2018-11-11T04:15:24.227Z,978.66
2018-11-11T04:16:24.169Z,978.63
2018-11-11T04:17:24.137Z,978.55
2018-11-11T04:18:24.099Z,978.57
2018-11-11T04:19:24.057Z,978.53
2018-11-11T04:20:24.017Z,978.52
2018-11-11T04:21:23.990Z,978.53
2018-11-11T04:22:23.943Z,978.45
2018-11-11T04:23:23.901Z,978.42
2018-11-11T04:24:23.857Z,978.40
2018-11-11T04:25:23.821Z,978.40
2018-11-11T04:26:23.779Z,978.39
2018-11-11T04:27:23.733Z,978.40
2018-11-11T04:28:23.697Z,978.44
2018-11-11T04:29:23.656Z,978.39
2018-11-11T04:30:23.626Z,978.36
2018-11-11T04:31:23.595Z,978.37
2018-11-11T04:32:23.528Z,978.35
2018-11-11T04:33:23.518Z,978.37
2018-11-11T04:34:23.447Z,978.41
2018-11-11T04:35:23.420Z,978.43
2018-11-11T04:36:23.395Z,978.48
2018-11-11T04:37:23.344Z,978.54
2018-11-11T04:38:23.311Z,978.55
2018-11-11T04:39:23.456Z,978.59
2018-11-11T04:40:23.262Z,978.57
2018-11-11T04:41:23.175Z,978.54
2018-11-11T04:42:23.159Z,978.49
2018-11-11T04:43:23.101Z,978.54
2018-11-11T04:44:23.101Z,978.48
2018-11-11T04:45:23.043Z,978.46
2018-11-11T04:46:23.012Z,978.45
2018-11-11T04:47:22.940Z,978.46
2018-11-11T04:48:22.929Z,978.49
2018-11-11T04:49:22.856Z,978.46
2018-11-11T04:50:22.825Z,978.44
2018-11-11T04:51:22.768Z,978.42
2018-11-11T04:52:22.733Z,978.41
2018-11-11T04:53:22.705Z,978.39
2018-11-11T04:54:22.660Z,978.38
2018-11-11T04:55:22.633Z,978.36
2018-11-11T04:56:22.571Z,978.37
2018-11-11T04:57:22.545Z,978.37
2018-11-11T04:58:22.500Z,978.39
2018-11-11T04:59:22.451Z,978.41
2018-11-11T05:00:22.434Z,978.44
2018-11-11T05:01:22.432Z,978.44
2018-11-11T05:02:22.378Z,978.48
2018-11-11T05:03:22.305Z,978.53
2018-11-11T05:04:22.313Z,978.54
2018-11-11T05:05:22.213Z,978.56
2018-11-11T05:06:22.191Z,978.58
2018-11-11T05:07:22.152Z,978.56
2018-11-11T05:08:22.115Z,978.55
2018-11-11T05:09:22.065Z,978.49
2018-11-11T05:10:22.042Z,978.45
2018-11-11T05:11:21.987Z,978.43
2018-11-11T05:12:21.951Z,978.36
2018-11-11T05:13:21.934Z,978.37
2018-11-11T05:14:21.876Z,978.32
2018-11-11T05:15:21.832Z,978.33
2018-11-11T05:16:21.787Z,978.33
2018-11-11T05:17:21.751Z,978.36
2018-11-11T05:18:21.726Z,978.31
2018-11-11T05:19:21.675Z,978.36
2018-11-11T05:20:21.640Z,978.34
2018-11-11T05:21:21.616Z,978.41
2018-11-11T05:22:21.541Z,978.45
2018-11-11T05:23:21.526Z,978.46
2018-11-11T05:24:21.472Z,978.43
2018-11-11T05:25:21.428Z,978.43
2018-11-11T05:26:21.409Z,978.42
2018-11-11T05:27:21.356Z,978.45
2018-11-11T05:28:21.341Z,978.47
2018-11-11T05:29:21.274Z,978.49
2018-11-11T05:30:21.237Z,978.52
2018-11-11T05:31:21.191Z,978.51
2018-11-11T05:32:21.157Z,978.45
2018-11-11T05:33:21.111Z,978.46
2018-11-11T05:34:21.092Z,978.50
2018-11-11T05:35:21.066Z,978.53
2018-11-11T05:36:20.988Z,978.55
2018-11-11T05:37:20.978Z,978.57
2018-11-11T05:38:20.926Z,978.58
2018-11-11T05:39:20.865Z,978.61
2018-11-11T05:40:20.828Z,978.58
2018-11-11T05:41:20.846Z,978.61
2018-11-11T05:42:20.770Z,978.61
2018-11-11T05:43:20.713Z,978.60
2018-11-11T05:44:20.678Z,978.61
2018-11-11T05:45:20.624Z,978.65
2018-11-11T05:46:20.581Z,978.83
2018-11-11T05:47:20.550Z,978.85
2018-11-11T05:48:20.502Z,978.81
2018-11-11T05:49:20.475Z,978.74
2018-11-11T05:50:20.429Z,978.67
2018-11-11T05:51:20.387Z,978.63
2018-11-11T05:52:20.349Z,978.65
2018-11-11T05:53:20.313Z,978.63
2018-11-11T05:54:20.266Z,978.63
2018-11-11T05:55:20.223Z,978.62
2018-11-11T05:56:20.192Z,978.65
2018-11-11T05:57:20.151Z,978.76
2018-11-11T05:58:20.110Z,978.66
2018-11-11T05:59:20.062Z,978.62
2018-11-11T06:00:20.037Z,978.62
2018-11-11T06:01:19.985Z,978.61
2018-11-11T06:02:19.947Z,978.61
2018-11-11T06:03:19.936Z,978.49
2018-11-11T06:04:19.904Z,978.52
2018-11-11T06:05:19.902Z,978.43
2018-11-11T06:06:19.797Z,978.46
2018-11-11T06:07:19.747Z,978.41
2018-11-11T06:08:19.709Z,978.48
2018-11-11T06:09:19.663Z,978.44
2018-11-11T06:10:19.629Z,978.45
2018-11-11T06:11:19.607Z,978.43
2018-11-11T06:12:19.570Z,978.42
2018-11-11T06:13:19.529Z,978.42
2018-11-11T06:14:19.478Z,978.43
2018-11-11T06:15:19.454Z,978.44
2018-11-11T06:16:19.398Z,978.43
2018-11-11T06:17:19.362Z,978.39
2018-11-11T06:18:19.322Z,978.42
2018-11-11T06:19:19.270Z,978.44
2018-11-11T06:20:19.234Z,978.47
2018-11-11T06:21:19.185Z,978.51
2018-11-11T06:22:19.161Z,978.53
2018-11-11T06:23:19.113Z,978.54
2018-11-11T06:24:19.073Z,978.60
2018-11-11T06:25:19.044Z,978.66
2018-11-11T06:26:19.008Z,978.66
2018-11-11T06:27:18.971Z,978.59
2018-11-11T06:28:18.913Z,978.61
2018-11-11T06:29:18.864Z,978.59
2018-11-11T06:30:18.842Z,978.65
2018-11-11T06:31:18.787Z,978.78
2018-11-11T06:32:18.759Z,978.90
2018-11-11T06:33:18.740Z,978.98
2018-11-11T06:34:18.677Z,979.03
2018-11-11T06:35:18.634Z,978.94
2018-11-11T06:36:18.621Z,978.90
2018-11-11T06:37:18.559Z,978.82
2018-11-11T06:38:18.516Z,978.85
2018-11-11T06:39:18.469Z,978.81
2018-11-11T06:40:18.423Z,978.79
2018-11-11T06:41:18.395Z,978.75
2018-11-11T06:42:18.366Z,978.78
2018-11-11T06:43:18.319Z,978.81
2018-11-11T06:44:18.276Z,978.76
2018-11-11T06:45:18.240Z,978.75
2018-11-11T06:46:18.178Z,978.76
2018-11-11T06:47:18.146Z,978.73
2018-11-11T06:48:18.104Z,978.73
2018-11-11T06:49:18.057Z,978.67
2018-11-11T06:50:18.074Z,978.60
2018-11-11T06:51:17.993Z,978.66
2018-11-11T06:52:17.951Z,978.60
2018-11-11T06:53:17.914Z,978.57
2018-11-11T06:54:17.882Z,978.59
2018-11-11T06:55:17.821Z,978.55
2018-11-11T06:56:17.809Z,978.64
2018-11-11T06:57:17.746Z,978.56
2018-11-11T06:58:17.731Z,978.59
2018-11-11T06:59:17.676Z,978.53
2018-11-11T07:00:17.618Z,978.44
2018-11-11T07:01:17.577Z,978.34
2018-11-11T07:02:17.545Z,978.24
2018-11-11T07:03:17.499Z,978.28
2018-11-11T07:04:17.461Z,978.38
2018-11-11T07:05:17.457Z,978.36
2018-11-11T07:06:17.407Z,978.35
2018-11-11T07:07:17.344Z,978.30
2018-11-11T07:08:17.316Z,978.24
2018-11-11T07:09:17.280Z,978.35
2018-11-11T07:10:17.230Z,978.40
2018-11-11T07:11:17.181Z,978.43
2018-11-11T07:12:17.150Z,978.49
2018-11-11T07:13:17.108Z,978.60
2018-11-11T07:14:17.063Z,978.68
2018-11-11T07:15:17.022Z,978.80
2018-11-11T07:16:16.992Z,978.80
2018-11-11T07:17:16.934Z,978.76
2018-11-11T07:18:16.923Z,978.71
2018-11-11T07:19:16.869Z,978.69
2018-11-11T07:20:16.886Z,978.69
2018-11-11T07:21:16.804Z,978.64
2018-11-11T07:22:16.743Z,978.64
2018-11-11T07:23:16.762Z,978.58
2018-11-11T07:24:16.788Z,978.62
2018-11-11T07:25:16.636Z,978.64
2018-11-11T07:26:16.705Z,978.62
2018-11-11T07:27:16.545Z,978.66
2018-11-11T07:28:16.550Z,978.68
2018-11-11T07:29:16.485Z,978.70
2018-11-11T07:30:16.430Z,978.71
2018-11-11T07:31:16.396Z,978.74
2018-11-11T07:32:16.342Z,978.79
2018-11-11T07:33:16.329Z,978.84
2018-11-11T07:34:16.287Z,978.90
2018-11-11T07:35:16.240Z,978.87
2018-11-11T07:36:16.187Z,978.85
2018-11-11T07:37:16.204Z,978.78
2018-11-11T07:38:16.127Z,978.71
2018-11-11T07:39:16.088Z,978.68
2018-11-11T07:40:16.057Z,978.65
2018-11-11T07:41:15.992Z,978.61
2018-11-11T07:42:16.028Z,978.54
2018-11-11T07:43:15.936Z,978.52
2018-11-11T07:44:15.867Z,978.53
2018-11-11T07:45:15.845Z,978.55
2018-11-11T07:46:15.809Z,978.57
2018-11-11T07:47:15.789Z,978.50
2018-11-11T07:48:15.778Z,978.43
2018-11-11T07:49:15.672Z,978.44
2018-11-11T07:50:15.762Z,978.50
2018-11-11T07:51:15.606Z,978.52
2018-11-11T07:52:15.583Z,978.57
2018-11-11T07:53:15.546Z,978.61
2018-11-11T07:54:15.485Z,978.60
2018-11-11T07:55:15.469Z,978.59
2018-11-11T07:56:15.399Z,978.71
2018-11-11T07:57:15.356Z,978.76
2018-11-11T07:58:15.347Z,978.75
2018-11-11T07:59:15.278Z,978.74
2018-11-11T08:00:15.260Z,978.71
2018-11-11T08:01:15.201Z,978.76
2018-11-11T08:02:15.203Z,978.78
2018-11-11T08:03:15.134Z,978.78
2018-11-11T08:04:15.091Z,978.81
2018-11-11T08:05:15.044Z,978.77
2018-11-11T08:06:15.022Z,978.83
2018-11-11T08:07:14.983Z,978.84
2018-11-11T08:08:14.933Z,978.88
2018-11-11T08:09:14.908Z,978.87
2018-11-11T08:10:14.865Z,978.89
2018-11-11T08:11:14.908Z,978.89
2018-11-11T08:12:14.811Z,978.90
2018-11-11T08:13:14.757Z,978.96
2018-11-11T08:14:14.720Z,978.96
2018-11-11T08:15:14.686Z,978.97
2018-11-11T08:16:14.652Z,978.96
2018-11-11T08:17:14.603Z,978.91
2018-11-11T08:18:14.567Z,978.97
2018-11-11T08:19:14.528Z,979.05
2018-11-11T08:20:14.496Z,979.10
2018-11-11T08:21:14.472Z,979.19
2018-11-11T08:22:14.420Z,979.29
2018-11-11T08:23:14.385Z,979.28
2018-11-11T08:24:14.337Z,979.33
2018-11-11T08:25:14.341Z,979.38
2018-11-11T08:26:14.272Z,979.40
2018-11-11T08:27:14.257Z,979.37
2018-11-11T08:28:14.220Z,979.41
2018-11-11T08:29:14.152Z,979.47
2018-11-11T08:30:14.105Z,979.52
2018-11-11T08:31:14.070Z,979.52
2018-11-11T08:32:14.094Z,979.53
2018-11-11T08:33:14.003Z,979.48
2018-11-11T08:34:13.966Z,979.43
2018-11-11T08:35:13.918Z,979.42
2018-11-11T08:36:13.942Z,979.48
2018-11-11T08:37:13.861Z,979.62
2018-11-11T08:38:13.843Z,979.63
2018-11-11T08:39:13.785Z,979.70
2018-11-11T08:40:13.808Z,979.69
2018-11-11T08:41:13.719Z,979.74
2018-11-11T08:42:13.669Z,979.77
2018-11-11T08:43:13.663Z,979.78
2018-11-11T08:44:13.582Z,979.84
2018-11-11T08:45:13.545Z,979.87
2018-11-11T08:46:13.499Z,979.88
2018-11-11T08:47:13.530Z,979.90
2018-11-11T08:48:13.430Z,979.93
2018-11-11T08:49:13.387Z,979.91
2018-11-11T08:50:13.362Z,979.96
2018-11-11T08:51:13.332Z,979.96
2018-11-11T08:52:13.287Z,979.95
2018-11-11T08:53:13.256Z,979.98
2018-11-11T08:54:13.209Z,979.96
2018-11-11T08:55:13.181Z,979.94
2018-11-11T08:56:13.129Z,979.93
2018-11-11T08:57:13.094Z,979.91
2018-11-11T08:58:13.189Z,979.88
2018-11-11T08:59:13.038Z,979.94
2018-11-11T09:00:12.960Z,979.94
2018-11-11T09:01:12.991Z,979.95
2018-11-11T09:02:12.904Z,980.00
2018-11-11T09:03:12.876Z,980.00
2018-11-11T09:04:12.816Z,980.04
2018-11-11T09:05:12.798Z,980.03
2018-11-11T09:06:12.756Z,980.07
2018-11-11T09:07:12.704Z,980.10
2018-11-11T09:08:12.679Z,980.15
2018-11-11T09:09:12.624Z,980.15
2018-11-11T09:10:12.612Z,980.21
2018-11-11T09:11:12.601Z,980.21
2018-11-11T09:12:13.447Z,980.23
2018-11-11T09:13:12.485Z,980.26
2018-11-11T09:14:12.448Z,980.30
2018-11-11T09:15:12.412Z,980.30
2018-11-11T09:16:12.400Z,980.32
2018-11-11T09:17:12.414Z,980.33
2018-11-11T09:18:12.290Z,980.32
2018-11-11T09:19:12.279Z,980.31
2018-11-11T09:20:12.239Z,980.28
2018-11-11T09:21:12.219Z,980.33
2018-11-11T09:22:12.223Z,980.31
2018-11-11T09:23:12.228Z,980.29
2018-11-11T09:24:12.064Z,980.30
2018-11-11T09:25:12.065Z,980.32
2018-11-11T09:26:11.996Z,980.40
2018-11-11T09:27:11.997Z,980.42
2018-11-11T09:28:11.924Z,980.42
2018-11-11T09:29:11.869Z,980.41
2018-11-11T09:30:11.840Z,980.44
2018-11-11T09:31:11.786Z,980.40
2018-11-11T09:32:11.739Z,980.42
2018-11-11T09:33:11.787Z,980.47
2018-11-11T09:34:11.708Z,980.53
2018-11-11T09:35:11.806Z,980.51
2018-11-11T09:36:11.611Z,980.55
2018-11-11T09:37:11.648Z,980.51
2018-11-11T09:38:11.521Z,980.57
2018-11-11T09:39:11.575Z,980.59
2018-11-11T09:40:11.438Z,980.61
2018-11-11T09:41:11.410Z,980.54
2018-11-11T09:42:11.387Z,980.55
2018-11-11T09:43:11.333Z,980.57
2018-11-11T09:44:11.305Z,980.57
2018-11-11T09:45:11.263Z,980.64
2018-11-11T09:46:11.241Z,980.62
2018-11-11T09:47:11.179Z,980.63
2018-11-11T09:48:11.174Z,980.61
2018-11-11T09:49:11.113Z,980.58
2018-11-11T09:50:11.106Z,980.59
2018-11-11T09:51:11.051Z,980.62
2018-11-11T09:52:11.035Z,980.64
2018-11-11T09:53:10.994Z,980.71
2018-11-11T09:54:11.071Z,980.72
2018-11-11T09:55:10.962Z,980.71
2018-11-11T09:56:10.861Z,980.71
2018-11-11T09:57:10.905Z,980.72
2018-11-11T09:58:10.776Z,980.74
2018-11-11T09:59:10.723Z,980.80
2018-11-11T10:00:10.683Z,980.74
2018-11-11T10:01:10.679Z,980.74
2018-11-11T10:02:10.665Z,980.76
2018-11-11T10:03:10.615Z,980.78
2018-11-11T10:04:10.624Z,980.78
2018-11-11T10:05:10.650Z,980.83
2018-11-11T10:06:10.533Z,980.84
2018-11-11T10:07:10.515Z,980.85
2018-11-11T10:08:10.384Z,980.90
2018-11-11T10:09:10.394Z,980.81
2018-11-11T10:10:10.332Z,980.78
2018-11-11T10:11:10.328Z,980.65
2018-11-11T10:12:10.300Z,980.63
2018-11-11T10:13:10.247Z,980.61
2018-11-11T10:14:10.963Z,980.62
2018-11-11T10:15:10.174Z,980.59
2018-11-11T10:16:10.111Z,980.56
2018-11-11T10:17:10.089Z,980.62
2018-11-11T10:18:10.031Z,980.62
2018-11-11T10:19:10.000Z,980.63
2018-11-11T10:20:09.973Z,980.65
2018-11-11T10:21:09.945Z,980.58
2018-11-11T10:22:09.881Z,980.58
2018-11-11T10:23:09.894Z,980.60
2018-11-11T10:24:09.836Z,980.66
2018-11-11T10:25:09.794Z,980.64
2018-11-11T10:26:09.766Z,980.63
2018-11-11T10:27:09.763Z,980.67
2018-11-11T10:28:09.736Z,980.68
2018-11-11T10:29:09.689Z,980.69
2018-11-11T10:30:09.614Z,980.77
2018-11-11T10:31:09.591Z,980.79
2018-11-11T10:32:09.710Z,980.82
2018-11-11T10:33:09.528Z,980.82
2018-11-11T10:34:09.467Z,980.82
2018-11-11T10:35:09.455Z,980.79
2018-11-11T10:36:09.516Z,980.87
2018-11-11T10:37:09.475Z,980.87
2018-11-11T10:38:09.363Z,980.88
2018-11-11T10:39:09.368Z,980.89
2018-11-11T10:40:09.320Z,980.85
2018-11-11T10:41:09.291Z,980.83
2018-11-11T10:42:09.184Z,980.81
2018-11-11T10:43:09.139Z,980.78
2018-11-11T10:44:09.178Z,980.80
2018-11-11T10:45:09.116Z,980.82
2018-11-11T10:46:09.056Z,980.84
2018-11-11T10:47:09.033Z,980.88
2018-11-11T10:48:08.976Z,980.87
2018-11-11T10:49:08.971Z,980.84
2018-11-11T10:50:08.974Z,980.88
2018-11-11T10:51:08.857Z,980.84
2018-11-11T10:52:08.880Z,980.85
2018-11-11T10:53:08.772Z,980.73
2018-11-11T10:54:08.814Z,980.72
2018-11-11T10:55:08.769Z,980.66
2018-11-11T10:56:08.671Z,980.60
2018-11-11T10:57:09.581Z,980.55
2018-11-11T10:58:08.623Z,980.62
2018-11-11T10:59:08.615Z,980.67
2018-11-11T11:00:08.612Z,980.67
2018-11-11T11:01:08.553Z,980.68
2018-11-11T11:02:08.565Z,980.60
2018-11-11T11:03:08.442Z,980.59
2018-11-11T11:04:08.401Z,980.63
2018-11-11T11:05:08.361Z,980.62
2018-11-11T11:06:08.417Z,980.69
2018-11-11T11:07:08.335Z,980.68
2018-11-11T11:08:08.285Z,980.66
2018-11-11T11:09:08.300Z,980.58
2018-11-11T11:10:08.221Z,980.59
2018-11-11T11:11:08.188Z,980.57
2018-11-11T11:12:08.150Z,980.57
2018-11-11T11:13:08.179Z,980.54
2018-11-11T11:14:08.148Z,980.52
2018-11-11T11:15:08.072Z,980.46
2018-11-11T11:16:08.176Z,980.47
2018-11-11T11:17:08.033Z,980.49
2018-11-11T11:18:07.973Z,980.38
2018-11-11T11:19:07.987Z,980.41
2018-11-11T11:20:07.925Z,980.41
2018-11-11T11:21:07.951Z,980.44
2018-11-11T11:22:07.857Z,980.45
2018-11-11T11:23:07.930Z,980.46
2018-11-11T11:24:07.813Z,980.55
2018-11-11T11:25:07.773Z,980.59
2018-11-11T11:26:07.801Z,980.56
2018-11-11T11:27:07.830Z,980.62
2018-11-11T11:28:07.723Z,980.64
2018-11-11T11:29:09.882Z,980.59
2018-11-11T11:30:07.655Z,980.60
2018-11-11T11:31:07.620Z,980.54
2018-11-11T11:32:07.644Z,980.49
2018-11-11T11:33:07.541Z,980.48
2018-11-11T11:34:07.539Z,980.45
2018-11-11T11:35:07.553Z,980.38
2018-11-11T11:36:07.485Z,980.35
2018-11-11T11:37:07.445Z,980.39
2018-11-11T11:38:07.435Z,980.44
2018-11-11T11:39:07.407Z,980.53
2018-11-11T11:40:07.388Z,980.50
2018-11-11T11:41:07.356Z,980.52
2018-11-11T11:42:07.299Z,980.44
2018-11-11T11:43:07.307Z,980.42
2018-11-11T11:44:07.290Z,980.47
2018-11-11T11:45:07.224Z,980.49
2018-11-11T11:46:07.180Z,980.51
2018-11-11T11:47:07.154Z,980.47
2018-11-11T11:48:07.213Z,980.53
2018-11-11T11:49:07.108Z,980.53
2018-11-11T11:50:07.187Z,980.60
2018-11-11T11:51:07.083Z,980.59
2018-11-11T11:52:07.114Z,980.59
2018-11-11T11:53:06.996Z,980.60
2018-11-11T11:54:06.962Z,980.72
2018-11-11T11:55:06.926Z,980.66
2018-11-11T11:56:06.885Z,980.65
2018-11-11T11:57:06.885Z,980.66
2018-11-11T11:58:07.108Z,980.75
2018-11-11T11:59:06.847Z,980.63
2018-11-11T12:00:06.801Z,980.72
2018-11-11T12:01:06.766Z,980.67
2018-11-11T12:02:06.757Z,980.68
2018-11-11T12:03:06.714Z,980.73
2018-11-11T12:04:06.655Z,980.57
2018-11-11T12:05:06.659Z,980.66
2018-11-11T12:06:06.608Z,980.64
2018-11-11T12:07:06.571Z,980.65
2018-11-11T12:08:06.537Z,980.62
2018-11-11T12:09:06.604Z,980.59
2018-11-11T12:10:06.484Z,980.58
2018-11-11T12:11:06.464Z,980.58
2018-11-11T12:12:06.447Z,980.64
2018-11-11T12:13:06.411Z,980.71
2018-11-11T12:14:06.382Z,980.68
2018-11-11T12:15:06.369Z,980.67
2018-11-11T12:16:06.325Z,980.69
2018-11-11T12:17:06.349Z,980.66
2018-11-11T12:18:06.282Z,980.65
2018-11-11T12:19:06.226Z,980.68
2018-11-11T12:20:06.199Z,980.62
2018-11-11T12:21:06.155Z,980.69
2018-11-11T12:22:06.149Z,980.67
2018-11-11T12:23:06.109Z,980.69
2018-11-11T12:24:06.085Z,980.73
2018-11-11T12:25:06.068Z,980.72
2018-11-11T12:26:06.020Z,980.73
2018-11-11T12:27:06.007Z,980.73
2018-11-11T12:28:05.945Z,980.75
2018-11-11T12:29:05.942Z,980.78